createdAt,value
2018-12-15T00:00:54.754Z,1.60
2018-12-15T00:03:22.292Z,1.60
2018-12-15T00:05:49.798Z,1.50
2018-12-15T00:08:17.308Z,1.50
2018-12-15T00:10:44.825Z,1.60
2018-12-15T00:13:12.428Z,1.60
2018-12-15T00:15:39.946Z,1.60
2018-12-15T00:18:07.469Z,1.50
2018-12-15T00:20:34.977Z,1.50
2018-12-15T00:23:02.514Z,1.50
2018-12-15T00:25:30.151Z,1.60
2018-12-15T00:27:57.665Z,1.50
2018-12-15T00:30:25.319Z,1.50
2018-12-15T00:32:52.842Z,1.50
2018-12-15T00:35:20.383Z,1.40
2018-12-15T00:37:47.895Z,1.40
2018-12-15T00:40:15.411Z,1.50
2018-12-15T00:42:42.937Z,1.50
2018-12-15T00:45:10.450Z,1.60
2018-12-15T00:47:37.975Z,1.60
2018-12-15T00:50:05.489Z,1.60
2018-12-15T00:52:33.024Z,1.60
2018-12-15T00:55:00.554Z,1.70
2018-12-15T00:57:28.068Z,1.70
2018-12-15T00:59:55.602Z,1.70
2018-12-15T01:02:23.124Z,1.70
2018-12-15T01:04:50.653Z,1.70
2018-12-15T01:07:18.168Z,1.70
2018-12-15T01:09:45.677Z,1.70
2018-12-15T01:12:13.194Z,1.70
2018-12-15T01:14:40.702Z,1.60
2018-12-15T01:17:08.209Z,1.60
2018-12-15T01:19:35.817Z,1.60
2018-12-15T01:22:03.324Z,1.50
2018-12-15T01:24:30.832Z,1.50
2018-12-15T01:26:58.426Z,1.50
2018-12-15T01:29:25.941Z,1.50
2018-12-15T01:31:53.461Z,1.50
2018-12-15T01:34:20.999Z,1.50
2018-12-15T01:36:48.502Z,1.50
2018-12-15T01:39:16.034Z,1.40
2018-12-15T01:41:43.580Z,1.40
2018-12-15T01:44:11.082Z,1.40
2018-12-15T01:46:38.587Z,1.40
2018-12-15T01:49:06.107Z,1.50
2018-12-15T01:51:33.618Z,1.40
2018-12-15T01:54:01.146Z,1.50
2018-12-15T01:56:28.674Z,1.50
2018-12-15T01:58:56.273Z,1.50
2018-12-15T02:01:23.786Z,1.50
2018-12-15T02:03:51.314Z,1.50
2018-12-15T02:06:18.820Z,1.60
2018-12-15T02:08:46.314Z,1.70
2018-12-15T02:11:13.822Z,1.70
2018-12-15T02:13:41.331Z,1.70
2018-12-15T02:16:08.840Z,1.70
2018-12-15T02:18:36.360Z,1.70
2018-12-15T02:21:03.877Z,1.70
2018-12-15T02:23:31.394Z,1.70
2018-12-15T02:25:58.894Z,1.80
2018-12-15T02:28:26.396Z,1.80
2018-12-15T02:30:53.925Z,1.80
2018-12-15T02:33:21.446Z,1.80
2018-12-15T02:35:48.988Z,1.70
2018-12-15T02:38:16.545Z,1.70
2018-12-15T02:40:44.147Z,1.60
2018-12-15T02:43:11.663Z,1.60
2018-12-15T02:45:39.166Z,1.60
2018-12-15T02:48:06.685Z,1.60
2018-12-15T02:50:34.230Z,1.60
2018-12-15T02:53:01.747Z,1.50
2018-12-15T02:55:29.281Z,1.50
2018-12-15T02:57:56.794Z,1.50
2018-12-15T03:00:24.303Z,1.50
2018-12-15T03:02:51.811Z,1.40
2018-12-15T03:05:19.315Z,1.40
2018-12-15T03:07:46.835Z,1.30
2018-12-15T03:10:14.383Z,1.30
2018-12-15T03:12:41.933Z,1.30
2018-12-15T03:15:09.445Z,1.30
2018-12-15T03:17:36.987Z,1.30
2018-12-15T03:20:04.583Z,1.30
2018-12-15T03:22:32.096Z,1.20
2018-12-15T03:24:59.608Z,1.20
2018-12-15T03:27:27.135Z,1.10
2018-12-15T03:29:54.649Z,1.10
2018-12-15T03:32:22.182Z,1.10
2018-12-15T03:34:49.685Z,1.00
2018-12-15T03:37:17.222Z,1.00
2018-12-15T03:39:44.744Z,1.00
2018-12-15T03:42:12.291Z,1.00
2018-12-15T03:44:39.844Z,0.90
2018-12-15T03:47:07.355Z,0.80
2018-12-15T03:49:35.010Z,0.70
2018-12-15T03:52:02.539Z,0.70
2018-12-15T03:54:30.046Z,0.60
2018-12-15T03:56:57.654Z,0.60
2018-12-15T03:59:25.443Z,0.60
2018-12-15T04:01:52.967Z,0.60
2018-12-15T04:04:20.495Z,0.50
2018-12-15T04:06:48.089Z,0.50
2018-12-15T04:09:15.611Z,0.50
2018-12-15T04:11:43.137Z,0.40
2018-12-15T04:14:10.663Z,0.40
2018-12-15T04:16:38.181Z,0.40
2018-12-15T04:19:05.727Z,0.40
2018-12-15T04:21:33.243Z,0.40
2018-12-15T04:24:00.766Z,0.40
2018-12-15T04:26:28.312Z,0.40
2018-12-15T04:28:55.845Z,0.30
2018-12-15T04:31:23.455Z,0.30
2018-12-15T04:33:51.003Z,0.20
2018-12-15T04:36:18.518Z,0.20
2018-12-15T04:38:46.042Z,0.20
2018-12-15T04:41:13.551Z,0.10
2018-12-15T04:43:41.126Z,0.10
2018-12-15T04:46:08.663Z,0.10
2018-12-15T04:48:36.202Z,0.10
2018-12-15T04:51:03.736Z,0.00
2018-12-15T04:53:31.245Z,0.00
2018-12-15T04:55:58.770Z,0.00
2018-12-15T04:58:26.302Z,0.00
2018-12-15T05:00:53.831Z,0.00
2018-12-15T05:03:22.839Z,0.00
2018-12-15T05:05:50.583Z,0.00
2018-12-15T05:08:18.118Z,0.00
2018-12-15T05:10:45.628Z,0.00
2018-12-15T05:13:13.275Z,0.00
2018-12-15T05:15:40.787Z,0.10
2018-12-15T05:18:08.320Z,0.10
2018-12-15T05:20:35.871Z,0.10
2018-12-15T05:23:03.409Z,0.10
2018-12-15T05:25:30.934Z,0.10
2018-12-15T05:27:58.453Z,0.20
2018-12-15T05:30:26.097Z,0.30
2018-12-15T05:32:53.622Z,0.40
2018-12-15T05:35:21.414Z,0.40
2018-12-15T05:37:48.941Z,0.40
2018-12-15T05:40:16.467Z,0.40
2018-12-15T05:42:43.987Z,0.40
2018-12-15T05:45:11.503Z,0.30
2018-12-15T05:47:39.013Z,0.30
2018-12-15T05:50:06.775Z,0.20
2018-12-15T05:52:34.297Z,0.20
2018-12-15T05:55:01.820Z,0.00
2018-12-15T05:57:29.356Z,-0.10
2018-12-15T05:59:56.889Z,-0.20
2018-12-15T06:02:25.013Z,-0.30
2018-12-15T06:04:53.610Z,-0.40
2018-12-15T06:07:21.262Z,-0.40
2018-12-15T06:09:48.798Z,-0.50
2018-12-15T06:12:16.436Z,-0.60
2018-12-15T06:14:43.953Z,-0.60
2018-12-15T06:17:11.470Z,-0.70
2018-12-15T06:19:38.992Z,-0.80
2018-12-15T06:22:06.548Z,-0.80
2018-12-15T06:24:34.064Z,-0.90
2018-12-15T06:27:01.583Z,-0.90
2018-12-15T06:29:29.124Z,-0.90
2018-12-15T06:31:56.647Z,-1.00
2018-12-15T06:34:24.183Z,-1.00
2018-12-15T06:36:51.711Z,-1.10
2018-12-15T06:39:19.248Z,-1.10
2018-12-15T06:41:46.755Z,-1.10
2018-12-15T06:44:14.418Z,-1.10
2018-12-15T06:46:42.022Z,-1.20
2018-12-15T06:49:09.562Z,-1.20
2018-12-15T06:51:37.179Z,-1.30
2018-12-15T06:54:04.767Z,-1.30
2018-12-15T06:56:32.306Z,-1.30
2018-12-15T06:58:59.890Z,-1.40
2018-12-15T07:01:27.631Z,-1.30
2018-12-15T07:03:55.218Z,-1.30
2018-12-15T07:06:22.869Z,-1.30
2018-12-15T07:08:50.380Z,-1.30
2018-12-15T07:11:17.929Z,-1.30
2018-12-15T07:13:45.643Z,-1.30
2018-12-15T07:16:13.171Z,-1.30
2018-12-15T07:18:44.792Z,-1.30
2018-12-15T07:21:10.234Z,-1.30
2018-12-15T07:23:37.774Z,-1.20
2018-12-15T07:26:05.311Z,-1.00
2018-12-15T07:28:33.161Z,-0.80
2018-12-15T07:31:00.899Z,-0.70
2018-12-15T07:33:28.420Z,-0.70
2018-12-15T07:35:55.939Z,-0.70
2018-12-15T07:38:23.459Z,-0.70
2018-12-15T07:40:50.984Z,-0.80
2018-12-15T07:43:18.507Z,-0.80
2018-12-15T07:45:46.024Z,-0.80
2018-12-15T07:48:13.733Z,-0.80
2018-12-15T07:50:41.279Z,-0.80
2018-12-15T07:53:08.829Z,-0.80
2018-12-15T07:55:36.537Z,-0.80
2018-12-15T07:58:04.062Z,-0.70
2018-12-15T08:00:31.683Z,-0.70
2018-12-15T08:02:59.215Z,-0.70
2018-12-15T08:05:26.742Z,-0.70
2018-12-15T08:07:54.271Z,-0.60
2018-12-15T08:10:23.766Z,-0.60
2018-12-15T08:13:02.602Z,-0.50
2018-12-15T08:15:30.224Z,-0.50
2018-12-15T08:17:57.741Z,-0.50
2018-12-15T08:20:25.274Z,-0.50
2018-12-15T08:22:52.789Z,-0.50
2018-12-15T08:25:20.314Z,-0.50
2018-12-15T08:27:47.862Z,-0.50
2018-12-15T08:30:15.678Z,-0.50
2018-12-15T08:32:43.277Z,-0.60
2018-12-15T08:35:10.832Z,-0.60
2018-12-15T08:37:38.368Z,-0.60
2018-12-15T08:40:05.908Z,-0.60
2018-12-15T08:42:33.455Z,-0.60
2018-12-15T08:45:01.006Z,-0.60
2018-12-15T08:47:28.530Z,-0.60
2018-12-15T08:49:56.066Z,-0.60
2018-12-15T08:52:24.364Z,-0.50
2018-12-15T08:54:52.518Z,-0.60
2018-12-15T08:57:25.190Z,-0.60
2018-12-15T08:59:52.908Z,-0.50
2018-12-15T09:02:20.504Z,-0.50
2018-12-15T09:04:48.410Z,-0.40
2018-12-15T09:07:16.637Z,-0.40
2018-12-15T09:09:44.303Z,-0.30
2018-12-15T09:12:11.834Z,-0.30
2018-12-15T09:14:39.390Z,-0.20
2018-12-15T09:17:06.947Z,-0.20
2018-12-15T09:19:34.497Z,-0.10
2018-12-15T09:22:02.025Z,-0.10
2018-12-15T09:24:29.546Z,0.00
2018-12-15T09:26:57.085Z,0.10
2018-12-15T09:29:24.613Z,0.20
2018-12-15T09:31:52.130Z,0.20
2018-12-15T09:34:19.666Z,0.40
2018-12-15T09:36:47.202Z,0.40
2018-12-15T09:39:14.726Z,0.50
2018-12-15T09:41:42.260Z,0.60
2018-12-15T09:44:09.799Z,0.60
2018-12-15T09:46:37.332Z,0.70
2018-12-15T09:49:04.868Z,0.80
2018-12-15T09:51:32.474Z,1.00
2018-12-15T09:53:59.996Z,1.10
2018-12-15T09:56:27.521Z,1.20
2018-12-15T09:58:55.046Z,1.30
2018-12-15T10:01:22.672Z,1.40
2018-12-15T10:03:50.263Z,1.50
2018-12-15T10:06:17.998Z,1.60
2018-12-15T10:08:45.595Z,1.60
2018-12-15T10:11:13.103Z,1.70
2018-12-15T10:13:40.634Z,1.80
2018-12-15T10:16:08.333Z,1.90
2018-12-15T10:18:35.862Z,1.90
2018-12-15T10:21:03.552Z,2.00
2018-12-15T10:23:31.129Z,2.10
2018-12-15T10:25:58.649Z,2.10
2018-12-15T10:28:26.179Z,2.10
2018-12-15T10:30:59.456Z,2.10
2018-12-15T10:33:26.989Z,2.10
2018-12-15T10:35:54.497Z,2.10
2018-12-15T10:38:22.022Z,2.20
2018-12-15T10:40:49.545Z,2.20
2018-12-15T10:43:17.055Z,2.20
2018-12-15T10:45:44.567Z,2.20
2018-12-15T10:48:12.107Z,2.30
2018-12-15T10:50:39.625Z,2.40
2018-12-15T10:53:07.257Z,2.30
2018-12-15T10:55:34.781Z,2.40
2018-12-15T10:58:02.324Z,2.30
2018-12-15T11:00:35.567Z,2.40
2018-12-15T11:03:03.112Z,2.40
2018-12-15T11:05:30.644Z,2.40
2018-12-15T11:07:58.195Z,2.50
2018-12-15T11:10:32.360Z,2.60
2018-12-15T11:13:00.098Z,2.60
2018-12-15T11:15:28.052Z,2.60
2018-12-15T11:17:55.582Z,2.70
2018-12-15T11:20:23.125Z,2.60
2018-12-15T11:22:50.664Z,2.70
2018-12-15T11:25:18.187Z,2.70
2018-12-15T11:27:46.445Z,2.80
2018-12-15T11:30:14.305Z,2.80
2018-12-15T11:32:43.062Z,2.80
2018-12-15T11:35:10.569Z,2.80
2018-12-15T11:37:38.095Z,2.80
2018-12-15T11:40:07.029Z,2.80
2018-12-15T11:42:34.811Z,2.80
2018-12-15T11:45:02.436Z,2.80
2018-12-15T11:47:30.072Z,2.80
2018-12-15T11:49:57.721Z,2.80
2018-12-15T11:52:26.819Z,2.70
2018-12-15T11:54:54.419Z,2.70
2018-12-15T11:57:21.942Z,2.70
2018-12-15T11:59:49.452Z,2.70
2018-12-15T12:02:17.006Z,2.70
2018-12-15T12:04:44.557Z,2.70
2018-12-15T12:07:12.624Z,2.70
2018-12-15T12:09:40.356Z,2.70
2018-12-15T12:12:07.896Z,2.80
2018-12-15T12:14:35.514Z,2.80
2018-12-15T12:17:03.052Z,2.80
2018-12-15T12:19:31.014Z,2.80
2018-12-15T12:21:58.558Z,2.80
2018-12-15T12:24:26.075Z,2.70
2018-12-15T12:26:53.630Z,2.70
2018-12-15T12:29:21.220Z,2.70
2018-12-15T12:31:49.022Z,2.70
2018-12-15T12:34:16.796Z,2.70
2018-12-15T12:39:19.890Z,2.70
2018-12-15T12:41:47.616Z,2.70
2018-12-15T12:44:15.150Z,2.70
2018-12-15T12:46:42.914Z,2.70
2018-12-15T12:49:11.828Z,2.70
2018-12-15T12:51:39.602Z,2.70
2018-12-15T12:54:07.145Z,2.70
2018-12-15T12:56:34.744Z,2.80
2018-12-15T12:59:02.359Z,2.80
2018-12-15T13:01:29.896Z,2.80
2018-12-15T13:03:57.433Z,2.80
2018-12-15T13:06:25.016Z,2.70
2018-12-15T13:08:52.718Z,2.60
2018-12-15T13:11:20.482Z,2.60
2018-12-15T13:13:48.033Z,2.50
2018-12-15T13:16:15.933Z,2.50
2018-12-15T13:18:43.799Z,2.50
2018-12-15T13:21:11.323Z,2.50
2018-12-15T13:23:38.843Z,2.50
2018-12-15T13:26:07.149Z,2.50
2018-12-15T13:28:35.163Z,2.40
2018-12-15T13:31:10.526Z,2.40
2018-12-15T13:33:38.671Z,2.50
2018-12-15T13:36:14.350Z,2.40
2018-12-15T13:38:41.871Z,2.40
2018-12-15T13:41:09.413Z,2.40
2018-12-15T13:43:36.933Z,2.30
2018-12-15T13:46:04.461Z,2.30
2018-12-15T13:48:32.454Z,2.20
2018-12-15T13:51:00.302Z,2.30
2018-12-15T13:53:28.348Z,2.20
2018-12-15T13:55:55.880Z,2.20
2018-12-15T13:58:25.935Z,2.20
2018-12-15T14:00:53.738Z,2.20
2018-12-15T14:03:21.257Z,2.20
2018-12-15T14:05:50.961Z,2.20
2018-12-15T14:08:18.660Z,2.20
2018-12-15T14:10:53.094Z,2.20
2018-12-15T14:13:20.616Z,2.10
2018-12-15T14:15:48.150Z,2.10
2018-12-15T14:18:15.660Z,1.00
2018-12-15T14:20:45.154Z,2.20
2018-12-15T14:23:12.728Z,2.20
2018-12-15T14:25:50.598Z,2.20
2018-12-15T14:28:19.107Z,2.20
2018-12-15T14:30:58.140Z,2.20
2018-12-15T14:33:26.675Z,2.20
2018-12-15T14:35:57.454Z,2.20
2018-12-15T14:38:25.409Z,2.20
2018-12-15T14:41:00.084Z,2.20
2018-12-15T14:43:27.947Z,2.10
2018-12-15T14:45:58.644Z,2.10
2018-12-15T14:48:26.212Z,2.10
2018-12-15T14:50:53.893Z,2.10
2018-12-15T14:53:21.429Z,2.00
2018-12-15T14:55:49.781Z,2.00
2018-12-15T14:58:17.322Z,2.00
2018-12-15T15:00:44.883Z,2.00
2018-12-15T15:03:12.675Z,1.90
2018-12-15T15:05:40.751Z,1.90
2018-12-15T15:08:08.551Z,1.80
2018-12-15T15:10:36.463Z,1.90
2018-12-15T15:13:04.349Z,1.90
2018-12-15T15:15:31.904Z,1.90
2018-12-15T15:17:59.455Z,1.90
2018-12-15T15:20:29.758Z,1.90
2018-12-15T15:22:56.537Z,1.90
2018-12-15T15:25:24.601Z,1.90
2018-12-15T15:27:52.129Z,1.80
2018-12-15T15:30:20.136Z,1.90
2018-12-15T15:32:47.911Z,1.90
2018-12-15T15:35:15.490Z,1.80
2018-12-15T15:37:43.063Z,1.80
2018-12-15T15:40:11.227Z,1.90
2018-12-15T15:42:38.969Z,1.80
2018-12-15T15:45:06.495Z,1.80
2018-12-15T15:47:34.025Z,1.80
2018-12-15T15:50:01.939Z,1.70
2018-12-15T15:52:29.568Z,1.80
2018-12-15T15:54:57.095Z,1.80
2018-12-15T15:57:24.863Z,1.80
2018-12-15T15:59:52.581Z,1.80
2018-12-15T16:02:20.274Z,1.70
2018-12-15T16:04:47.823Z,1.70
2018-12-15T16:07:15.494Z,1.70
2018-12-15T16:09:44.980Z,1.70
2018-12-15T16:12:12.669Z,1.80
2018-12-15T16:14:40.211Z,1.80
2018-12-15T16:17:07.825Z,1.80
2018-12-15T16:19:35.378Z,1.70
2018-12-15T16:22:02.903Z,1.80
2018-12-15T16:24:30.431Z,1.80
2018-12-15T16:26:58.004Z,1.70
2018-12-15T16:29:25.596Z,1.80
2018-12-15T16:31:53.381Z,1.80
2018-12-15T16:34:20.951Z,1.80
2018-12-15T16:36:48.533Z,1.80
2018-12-15T16:39:16.141Z,1.80
2018-12-15T16:41:43.802Z,1.80
2018-12-15T16:44:11.341Z,1.80
2018-12-15T16:46:38.953Z,1.90
2018-12-15T16:49:06.487Z,1.90
2018-12-15T16:51:34.007Z,1.90
2018-12-15T16:54:01.547Z,1.90
2018-12-15T16:56:29.078Z,2.00
2018-12-15T16:58:56.591Z,2.00
2018-12-15T17:01:24.135Z,2.00
2018-12-15T17:03:51.888Z,2.00
2018-12-15T17:06:19.403Z,2.10
2018-12-15T17:08:46.926Z,2.00
2018-12-15T17:11:14.465Z,2.00
2018-12-15T17:13:41.990Z,2.00
2018-12-15T17:16:09.513Z,2.10
2018-12-15T17:18:37.114Z,2.10
2018-12-15T17:21:04.648Z,2.10
2018-12-15T17:23:32.199Z,2.00
2018-12-15T17:25:59.729Z,2.00
2018-12-15T17:28:27.254Z,2.00
2018-12-15T17:30:54.840Z,2.00
2018-12-15T17:33:22.542Z,1.90
2018-12-15T17:35:50.080Z,1.90
2018-12-15T17:38:17.626Z,1.80
2018-12-15T17:40:45.233Z,1.90
2018-12-15T17:43:12.876Z,1.90
2018-12-15T17:45:40.398Z,1.90
2018-12-15T17:48:07.930Z,1.80
2018-12-15T17:50:35.675Z,1.80
2018-12-15T17:53:03.186Z,1.80
2018-12-15T17:55:30.692Z,1.80
2018-12-15T17:57:58.234Z,1.80
2018-12-15T18:00:25.786Z,1.80
2018-12-15T18:02:53.334Z,1.70
2018-12-15T18:05:20.911Z,1.70
2018-12-15T18:07:48.505Z,1.70
2018-12-15T18:10:16.023Z,1.80
2018-12-15T18:12:43.533Z,1.80
2018-12-15T18:15:11.058Z,1.80
2018-12-15T18:17:38.572Z,1.70
2018-12-15T18:20:07.313Z,1.60
2018-12-15T18:22:34.851Z,1.50
2018-12-15T18:25:02.362Z,1.50
2018-12-15T18:27:29.889Z,1.50
2018-12-15T18:29:57.517Z,1.40
2018-12-15T18:32:25.037Z,1.40
2018-12-15T18:34:52.557Z,1.40
2018-12-15T18:37:20.086Z,1.40
2018-12-15T18:39:47.596Z,1.50
2018-12-15T18:42:15.157Z,1.50
2018-12-15T18:44:42.676Z,1.50
2018-12-15T18:47:10.193Z,1.50
2018-12-15T18:49:37.944Z,1.50
2018-12-15T18:52:05.605Z,1.50
2018-12-15T18:54:33.120Z,1.50
2018-12-15T18:57:02.244Z,1.50
2018-12-15T18:59:35.011Z,1.50
2018-12-15T19:02:02.902Z,1.50
2018-12-15T19:04:30.691Z,1.60
2018-12-15T19:06:58.614Z,1.60
2018-12-15T19:09:26.123Z,1.60
2018-12-15T19:11:53.962Z,1.60
2018-12-15T19:14:21.655Z,1.60
2018-12-15T19:16:49.402Z,1.60
2018-12-15T19:19:17.538Z,1.60
2018-12-15T19:21:45.814Z,1.60
2018-12-15T19:24:13.878Z,1.60
2018-12-15T19:26:41.548Z,1.60
2018-12-15T19:29:09.289Z,1.60
2018-12-15T19:31:37.064Z,1.60
2018-12-15T19:34:04.582Z,1.70
2018-12-15T19:36:32.106Z,1.70
2018-12-15T19:38:59.623Z,1.60
2018-12-15T19:41:27.136Z,1.60
2018-12-15T19:43:54.713Z,1.60
2018-12-15T19:46:22.219Z,1.60
2018-12-15T19:48:49.825Z,1.60
2018-12-15T19:51:17.347Z,1.60
2018-12-15T19:53:44.872Z,1.60
2018-12-15T19:56:12.395Z,1.60
2018-12-15T19:58:39.920Z,1.60
2018-12-15T20:01:07.451Z,1.60
2018-12-15T20:03:35.011Z,1.60
2018-12-15T20:06:02.543Z,1.60
2018-12-15T20:08:30.064Z,1.60
2018-12-15T20:10:57.603Z,1.60
2018-12-15T20:13:25.135Z,1.60
2018-12-15T20:15:52.667Z,1.60
2018-12-15T20:18:20.195Z,1.60
2018-12-15T20:20:47.717Z,1.60
2018-12-15T20:23:15.247Z,1.60
2018-12-15T20:25:42.785Z,1.60
2018-12-15T20:28:10.326Z,1.60
2018-12-15T20:30:37.861Z,1.60
2018-12-15T20:33:05.699Z,1.60
2018-12-15T20:35:33.217Z,1.60
2018-12-15T20:38:00.721Z,1.70
2018-12-15T20:40:28.262Z,1.60
2018-12-15T20:42:55.780Z,1.60
2018-12-15T20:45:23.284Z,1.70
2018-12-15T20:47:50.799Z,1.70
2018-12-15T20:50:18.314Z,1.70
2018-12-15T20:52:47.726Z,1.70
2018-12-15T20:55:15.359Z,1.70
2018-12-15T20:57:42.878Z,1.70
2018-12-15T21:00:10.683Z,1.70
2018-12-15T21:02:38.202Z,1.80
2018-12-15T21:05:06.109Z,1.70
2018-12-15T21:07:33.623Z,1.80
2018-12-15T21:10:01.173Z,1.80
2018-12-15T21:12:28.720Z,1.80
2018-12-15T21:14:58.211Z,1.80
2018-12-15T21:17:25.734Z,1.80
2018-12-15T21:19:53.256Z,1.80
2018-12-15T21:22:20.830Z,1.80
2018-12-15T21:24:48.367Z,1.80
2018-12-15T21:27:15.883Z,1.80
2018-12-15T21:29:43.403Z,1.80
2018-12-15T21:32:10.921Z,1.80
2018-12-15T21:34:38.517Z,1.80
2018-12-15T21:37:06.074Z,1.80
2018-12-15T21:39:33.609Z,1.80
2018-12-15T21:42:01.125Z,1.80
2018-12-15T21:44:28.643Z,1.80
2018-12-15T21:46:56.166Z,1.80
2018-12-15T21:49:23.686Z,1.80
2018-12-15T21:51:56.260Z,1.80
2018-12-15T21:54:20.766Z,1.80
2018-12-15T21:56:48.296Z,1.80
2018-12-15T21:59:15.827Z,1.80
2018-12-15T22:01:43.348Z,1.80
2018-12-15T22:04:10.990Z,1.80
2018-12-15T22:06:38.513Z,1.80
2018-12-15T22:09:06.933Z,1.80
2018-12-15T22:11:34.477Z,1.80
2018-12-15T22:14:03.208Z,1.80
2018-12-15T22:16:31.771Z,1.80
2018-12-15T22:18:59.558Z,1.80
2018-12-15T22:21:27.070Z,1.80
2018-12-15T22:23:54.582Z,1.80
2018-12-15T22:26:22.094Z,1.80
2018-12-15T22:28:49.622Z,1.80
2018-12-15T22:31:17.146Z,1.80
2018-12-15T22:33:44.684Z,1.90
2018-12-15T22:36:12.194Z,1.90
2018-12-15T22:38:39.752Z,1.90
2018-12-15T22:41:07.270Z,1.90
2018-12-15T22:43:34.786Z,1.90
2018-12-15T22:46:02.533Z,1.90
2018-12-15T22:48:30.058Z,1.90
2018-12-15T22:50:57.718Z,1.90
2018-12-15T22:53:25.226Z,1.90
2018-12-15T22:55:52.750Z,1.90
2018-12-15T22:58:20.256Z,1.90
2018-12-15T23:00:53.699Z,1.90
2018-12-15T23:03:21.214Z,1.90
2018-12-15T23:05:48.727Z,2.00
2018-12-15T23:08:16.247Z,2.00
2018-12-15T23:10:43.761Z,2.00
2018-12-15T23:13:11.284Z,2.00
2018-12-15T23:15:38.823Z,2.10
2018-12-15T23:18:06.330Z,2.00
2018-12-15T23:20:33.849Z,2.10
2018-12-15T23:23:01.371Z,2.10
2018-12-15T23:25:28.884Z,2.10
2018-12-15T23:27:56.409Z,2.10
2018-12-15T23:30:23.925Z,2.20
2018-12-15T23:32:51.434Z,2.20
2018-12-15T23:35:18.955Z,2.20
2018-12-15T23:37:46.700Z,2.20
2018-12-15T23:40:14.209Z,2.10
2018-12-15T23:42:41.725Z,2.20
2018-12-15T23:45:09.235Z,2.20
2018-12-15T23:47:36.747Z,2.20
2018-12-15T23:50:05.493Z,2.10
2018-12-15T23:52:33.104Z,2.20
2018-12-15T23:55:00.625Z,2.20
2018-12-15T23:57:28.151Z,2.20
2018-12-15T23:59:55.670Z,2.20
